createdAt,value
2023-03-26T00:00:48.418Z,11.27
2023-03-26T00:03:17.024Z,12.15
2023-03-26T00:05:46.533Z,14.50
2023-03-26T00:08:12.968Z,6.72
2023-03-26T00:10:41.421Z,10.43
2023-03-26T00:13:08.814Z,10.97
2023-03-26T00:15:36.565Z,10.23
2023-03-26T00:18:03.493Z,11.57
2023-03-26T00:20:32.739Z,13.48
2023-03-26T00:23:01.797Z,11.73
2023-03-26T00:25:28.428Z,11.00
2023-03-26T00:27:54.822Z,9.63
2023-03-26T00:30:21.260Z,11.25
2023-03-26T00:32:53.681Z,11.73
2023-03-26T00:35:20.890Z,10.90
2023-03-26T00:37:47.770Z,9.87
2023-03-26T00:40:16.927Z,12.70
2023-03-26T00:42:43.345Z,12.77
2023-03-26T00:45:10.216Z,7.28
2023-03-26T00:47:37.157Z,10.60
2023-03-26T00:50:04.289Z,10.63
2023-03-26T00:52:31.648Z,7.95
2023-03-26T00:54:58.103Z,7.07
2023-03-26T00:57:35.743Z,7.82
2023-03-26T01:00:16.487Z,9.38
2023-03-26T01:02:45.156Z,7.80
2023-03-26T01:05:36.343Z,12.43
2023-03-26T01:08:22.640Z,4.90
2023-03-26T01:10:53.274Z,12.52
2023-03-26T01:13:23.048Z,6.60
2023-03-26T01:15:51.047Z,5.53
2023-03-26T01:18:20.752Z,14.68
2023-03-26T01:20:50.813Z,3.85
2023-03-26T01:23:26.434Z,9.05
2023-03-26T01:26:04.285Z,8.27
2023-03-26T01:28:34.994Z,4.90
2023-03-26T01:31:17.287Z,8.63
2023-03-26T01:33:54.566Z,6.35
2023-03-26T01:36:37.621Z,10.48
2023-03-26T01:39:25.238Z,7.03
2023-03-26T01:41:57.149Z,8.10
2023-03-26T01:44:32.077Z,8.77
2023-03-26T01:47:00.645Z,6.00
2023-03-26T01:49:29.005Z,7.50
2023-03-26T01:51:56.670Z,7.50
2023-03-26T01:54:26.746Z,7.37
2023-03-26T01:57:05.548Z,6.15
2023-03-26T01:59:56.886Z,11.50
2023-03-26T02:02:44.911Z,7.32
2023-03-26T02:05:29.290Z,9.73
2023-03-26T02:08:22.662Z,5.50
2023-03-26T02:10:54.766Z,7.47
2023-03-26T02:13:21.928Z,5.32
2023-03-26T02:16:02.854Z,10.10
2023-03-26T02:18:41.673Z,8.68
2023-03-26T02:21:20.461Z,4.90
2023-03-26T02:23:57.788Z,9.68
2023-03-26T02:26:24.613Z,8.13
2023-03-26T02:28:51.044Z,5.85
2023-03-26T02:31:19.232Z,9.32
2023-03-26T02:33:47.595Z,6.60
2023-03-26T02:36:14.255Z,8.48
2023-03-26T02:38:41.594Z,7.80
2023-03-26T02:41:08.006Z,7.53
2023-03-26T02:43:34.357Z,5.25
2023-03-26T02:46:00.898Z,9.23
2023-03-26T02:48:27.359Z,13.23
2023-03-26T02:50:56.708Z,8.00
2023-03-26T02:53:23.743Z,7.63
2023-03-26T02:55:50.248Z,9.55
2023-03-26T02:58:17.420Z,10.77
2023-03-26T03:00:44.923Z,7.50
2023-03-26T03:03:11.323Z,10.60
2023-03-26T03:05:38.080Z,14.52
2023-03-26T03:08:05.899Z,13.48
2023-03-26T03:10:35.146Z,5.60
2023-03-26T03:13:01.567Z,7.80
2023-03-26T03:15:31.072Z,11.95
2023-03-26T03:17:57.481Z,10.52
2023-03-26T03:20:23.949Z,11.88
2023-03-26T03:22:50.363Z,14.97
2023-03-26T03:25:17.457Z,13.35
2023-03-26T03:27:44.555Z,12.63
2023-03-26T03:30:13.057Z,20.88
2023-03-26T03:32:39.588Z,15.13
2023-03-26T03:35:07.316Z,17.03
2023-03-26T03:37:33.929Z,19.50
2023-03-26T03:40:00.312Z,18.27
2023-03-26T03:42:27.512Z,29.50
2023-03-26T03:44:53.941Z,23.30
2023-03-26T03:47:21.029Z,20.47
2023-03-26T03:49:47.356Z,24.58
2023-03-26T03:52:13.728Z,17.52
2023-03-26T03:54:40.269Z,26.33
2023-03-26T03:57:06.582Z,24.45
2023-03-26T03:59:33.026Z,24.57
2023-03-26T04:01:59.391Z,25.77
2023-03-26T04:04:25.903Z,26.30
2023-03-26T04:06:52.604Z,31.15
2023-03-26T04:09:19.096Z,23.23
2023-03-26T04:11:45.584Z,16.47
2023-03-26T04:14:11.929Z,22.77
2023-03-26T04:16:38.330Z,35.97
2023-03-26T04:19:04.838Z,18.35
2023-03-26T04:21:31.308Z,28.33
2023-03-26T04:23:57.730Z,19.43
2023-03-26T04:26:24.307Z,18.95
2023-03-26T04:28:56.368Z,18.63
2023-03-26T04:31:28.911Z,25.80
2023-03-26T04:34:01.414Z,24.75
2023-03-26T04:36:30.106Z,21.33
2023-03-26T04:38:58.425Z,33.00
2023-03-26T04:41:27.799Z,29.17
2023-03-26T04:43:54.514Z,24.85
2023-03-26T04:46:21.842Z,28.65
2023-03-26T04:48:52.517Z,25.20
2023-03-26T04:51:23.746Z,23.30
2023-03-26T04:53:57.748Z,28.38
2023-03-26T04:56:38.094Z,28.52
2023-03-26T04:59:04.584Z,22.20
2023-03-26T05:01:31.011Z,37.90
2023-03-26T05:03:58.552Z,21.75
2023-03-26T05:06:28.821Z,31.13
2023-03-26T05:08:55.432Z,23.50
2023-03-26T05:11:21.803Z,24.65
2023-03-26T05:13:48.202Z,25.93
2023-03-26T05:16:14.730Z,26.70
2023-03-26T05:18:41.229Z,34.80
2023-03-26T05:21:07.838Z,24.02
2023-03-26T05:23:34.310Z,20.13
2023-03-26T05:26:00.751Z,24.83
2023-03-26T05:28:28.138Z,27.23
2023-03-26T05:30:54.868Z,27.83
2023-03-26T05:33:21.993Z,27.73
2023-03-26T05:35:59.841Z,23.40
2023-03-26T05:38:28.839Z,21.27
2023-03-26T05:41:01.950Z,23.35
2023-03-26T05:43:29.168Z,23.10
2023-03-26T05:45:55.610Z,28.40
2023-03-26T05:48:22.334Z,23.80
2023-03-26T05:50:54.146Z,34.07
2023-03-26T05:53:21.803Z,25.40
2023-03-26T05:55:58.448Z,26.80
2023-03-26T05:58:26.072Z,22.83
2023-03-26T06:01:16.505Z,26.10
2023-03-26T06:03:44.796Z,26.27
2023-03-26T06:06:20.451Z,24.30
2023-03-26T06:09:01.766Z,18.77
2023-03-26T06:11:32.861Z,29.33
2023-03-26T06:14:00.347Z,20.23
2023-03-26T06:16:28.076Z,32.97
2023-03-26T06:18:56.326Z,26.83
2023-03-26T06:21:24.437Z,20.90
2023-03-26T06:23:51.810Z,22.23
2023-03-26T06:26:18.476Z,20.65
2023-03-26T06:28:44.955Z,24.57
2023-03-26T06:31:11.960Z,31.25
2023-03-26T06:33:38.526Z,21.15
2023-03-26T06:36:05.524Z,27.00
2023-03-26T06:38:32.016Z,31.40
2023-03-26T06:41:03.284Z,27.30
2023-03-26T06:43:33.468Z,19.00
2023-03-26T06:46:01.242Z,25.27
2023-03-26T06:48:27.808Z,22.88
2023-03-26T06:50:54.671Z,30.58
2023-03-26T06:53:21.285Z,19.43
2023-03-26T06:55:47.672Z,21.02
2023-03-26T06:58:14.380Z,29.27
2023-03-26T07:00:42.213Z,24.33
2023-03-26T07:03:08.762Z,33.85
2023-03-26T07:05:35.288Z,27.63
2023-03-26T07:08:02.872Z,27.25
2023-03-26T07:10:29.387Z,28.55
2023-03-26T07:12:56.069Z,28.90
2023-03-26T07:15:22.567Z,25.15
2023-03-26T07:17:49.093Z,29.20
2023-03-26T07:20:15.824Z,29.27
2023-03-26T07:22:42.675Z,32.80
2023-03-26T07:25:09.997Z,30.17
2023-03-26T07:28:02.244Z,22.33
2023-03-26T07:30:31.668Z,36.00
2023-03-26T07:33:07.310Z,28.27
2023-03-26T07:35:46.249Z,25.38
2023-03-26T07:38:47.041Z,24.10
2023-03-26T07:41:42.716Z,18.40
2023-03-26T07:44:19.347Z,46.83
2023-03-26T07:46:47.791Z,35.20
2023-03-26T07:49:14.887Z,33.15
2023-03-26T07:51:41.544Z,28.42
2023-03-26T07:54:10.645Z,28.50
2023-03-26T07:56:42.007Z,28.50
2023-03-26T07:59:36.362Z,36.05
2023-03-26T08:02:02.649Z,33.67
2023-03-26T08:05:02.836Z,31.67
2023-03-26T08:08:02.755Z,39.15
2023-03-26T08:10:39.051Z,33.07
2023-03-26T08:13:34.310Z,27.55
2023-03-26T08:16:26.307Z,33.40
2023-03-26T08:19:30.741Z,16.80
2023-03-26T08:22:40.922Z,20.65
2023-03-26T08:25:33.331Z,37.60
2023-03-26T08:28:26.356Z,28.65
2023-03-26T08:30:55.114Z,22.10
2023-03-26T08:33:25.830Z,18.02
2023-03-26T08:35:52.257Z,26.38
2023-03-26T08:38:20.806Z,20.53
2023-03-26T08:41:08.640Z,21.73
2023-03-26T08:43:57.263Z,24.15
2023-03-26T08:46:51.756Z,23.30
2023-03-26T08:49:33.279Z,23.15
2023-03-26T08:52:35.396Z,24.37
2023-03-26T08:55:30.194Z,20.88
2023-03-26T08:58:27.821Z,39.85
2023-03-26T09:01:06.418Z,28.73
2023-03-26T09:03:54.001Z,25.38
2023-03-26T09:07:06.923Z,27.33
2023-03-26T09:10:03.149Z,25.38
2023-03-26T09:13:07.361Z,25.25
2023-03-26T09:15:55.793Z,22.92
2023-03-26T09:18:44.077Z,34.03
2023-03-26T09:21:32.032Z,28.87
2023-03-26T09:24:22.604Z,22.75
2023-03-26T09:27:19.724Z,28.73
2023-03-26T09:30:12.406Z,23.05
2023-03-26T09:33:05.234Z,19.70
2023-03-26T09:35:52.854Z,19.60
2023-03-26T09:38:25.402Z,21.25
2023-03-26T09:40:54.690Z,26.83
2023-03-26T09:43:40.921Z,27.30
2023-03-26T09:46:37.148Z,27.50
2023-03-26T09:49:28.145Z,21.63
2023-03-26T09:52:07.087Z,20.90
2023-03-26T09:55:11.305Z,23.75
2023-03-26T09:58:01.100Z,15.95
2023-03-26T10:00:33.169Z,13.68
2023-03-26T10:03:18.165Z,21.97
2023-03-26T10:05:59.666Z,16.30
2023-03-26T10:08:39.685Z,12.63
2023-03-26T10:11:21.341Z,13.68
2023-03-26T10:14:12.623Z,12.70
2023-03-26T10:16:46.414Z,11.27
2023-03-26T10:19:28.701Z,11.80
2023-03-26T10:22:13.542Z,15.00
2023-03-26T10:25:10.879Z,13.43
2023-03-26T10:27:49.349Z,7.80
2023-03-26T10:30:38.453Z,9.33
2023-03-26T10:33:32.309Z,15.60
2023-03-26T10:36:27.562Z,13.70
2023-03-26T10:39:36.420Z,9.18
2023-03-26T10:42:21.070Z,13.63
2023-03-26T10:45:18.878Z,7.80
2023-03-26T10:48:13.436Z,9.93
2023-03-26T10:51:02.469Z,6.10
2023-03-26T10:53:54.673Z,9.98
2023-03-26T10:56:44.131Z,8.43
2023-03-26T10:59:15.699Z,10.13
2023-03-26T11:02:00.853Z,6.78
2023-03-26T11:04:55.633Z,21.63
2023-03-26T11:07:44.108Z,14.38
2023-03-26T11:10:10.411Z,11.13
2023-03-26T11:13:06.832Z,8.37
2023-03-26T11:15:46.014Z,9.23
2023-03-26T11:18:39.354Z,11.18
2023-03-26T11:21:19.125Z,14.48
2023-03-26T11:23:49.702Z,13.80
2023-03-26T11:27:15.285Z,12.33
2023-03-26T11:30:03.101Z,9.00
2023-03-26T11:33:00.109Z,8.20
2023-03-26T11:35:43.893Z,16.20
2023-03-26T11:38:21.630Z,10.23
2023-03-26T11:40:53.082Z,8.53
2023-03-26T11:43:26.514Z,7.00
2023-03-26T11:45:53.742Z,12.05
2023-03-26T11:48:46.552Z,17.95
2023-03-26T11:51:20.226Z,9.90
2023-03-26T11:53:47.711Z,10.83
2023-03-26T11:56:25.909Z,34.50
2023-03-26T11:59:08.551Z,8.93
2023-03-26T12:01:50.457Z,18.25
2023-03-26T12:04:37.801Z,6.90
2023-03-26T12:07:21.042Z,15.10
2023-03-26T12:09:56.489Z,16.13
2023-03-26T12:12:42.180Z,10.95
2023-03-26T12:15:21.257Z,9.93
2023-03-26T12:17:53.312Z,15.57
2023-03-26T12:20:25.584Z,14.73
2023-03-26T12:22:59.256Z,11.23
2023-03-26T12:25:27.957Z,5.65
2023-03-26T12:28:15.557Z,9.63
2023-03-26T12:30:54.199Z,11.32
2023-03-26T12:33:29.589Z,13.20
2023-03-26T12:36:00.551Z,9.00
2023-03-26T12:38:33.566Z,13.20
2023-03-26T12:43:51.460Z,11.23
2023-03-26T12:44:55.919Z,15.20
2023-03-26T12:47:57.213Z,7.03
2023-03-26T12:50:05.321Z,12.38
2023-03-26T12:52:49.576Z,7.13
2023-03-26T12:55:40.451Z,8.90
2023-03-26T12:58:27.170Z,12.30
2023-03-26T13:00:56.421Z,11.37
2023-03-26T13:03:37.738Z,10.93
2023-03-26T13:06:20.304Z,12.20
2023-03-26T13:08:52.728Z,10.98
2023-03-26T13:11:43.446Z,9.57
2023-03-26T13:14:48.303Z,9.13
2023-03-26T13:17:34.909Z,8.20
2023-03-26T13:20:25.075Z,6.25
2023-03-26T13:23:19.450Z,8.45
2023-03-26T13:26:09.180Z,5.07
2023-03-26T13:29:09.384Z,12.57
2023-03-26T13:32:08.709Z,9.32
2023-03-26T13:35:10.272Z,8.02
2023-03-26T13:37:59.611Z,8.27
2023-03-26T13:40:41.691Z,7.13
2023-03-26T13:43:28.227Z,7.10
2023-03-26T13:46:07.158Z,10.30
2023-03-26T13:48:44.394Z,3.58
2023-03-26T13:51:21.884Z,8.25
2023-03-26T13:53:55.627Z,12.95
2023-03-26T13:56:30.765Z,5.40
2023-03-26T13:59:12.110Z,7.82
2023-03-26T14:01:51.337Z,9.27
2023-03-26T14:04:52.443Z,9.93
2023-03-26T14:07:26.122Z,11.55
2023-03-26T14:10:01.600Z,4.27
2023-03-26T14:12:49.459Z,4.63
2023-03-26T14:15:44.092Z,5.05
2023-03-26T14:18:24.575Z,9.77
2023-03-26T14:20:56.252Z,8.65
2023-03-26T14:24:04.462Z,9.07
2023-03-26T14:27:07.918Z,3.47
2023-03-26T14:29:56.914Z,10.27
2023-03-26T14:32:52.051Z,4.43
2023-03-26T14:35:31.511Z,3.38
2023-03-26T14:38:33.510Z,6.00
2023-03-26T14:41:24.640Z,4.35
2023-03-26T14:44:22.889Z,5.53
2023-03-26T14:47:15.851Z,5.18
2023-03-26T14:50:08.489Z,3.33
2023-03-26T14:52:51.554Z,4.67
2023-03-26T14:55:49.353Z,11.85
2023-03-26T14:58:24.871Z,5.72
2023-03-26T15:01:04.176Z,6.90
2023-03-26T15:03:49.034Z,5.78
2023-03-26T15:06:40.073Z,11.67
2023-03-26T15:09:27.839Z,4.68
2023-03-26T15:12:12.276Z,4.88
2023-03-26T15:15:04.222Z,6.30
2023-03-26T15:17:55.336Z,6.40
2023-03-26T15:20:56.934Z,6.90
2023-03-26T15:24:05.436Z,9.07
2023-03-26T15:27:01.578Z,3.92
2023-03-26T15:30:12.617Z,9.10
2023-03-26T15:33:11.916Z,3.35
2023-03-26T15:35:52.768Z,6.30
2023-03-26T15:38:50.204Z,9.32
2023-03-26T15:42:03.865Z,3.97
2023-03-26T15:44:53.026Z,5.28
2023-03-26T15:47:39.029Z,9.27
2023-03-26T15:50:20.648Z,6.83
2023-03-26T15:53:06.585Z,7.57
2023-03-26T15:56:13.925Z,6.95
2023-03-26T15:59:01.318Z,10.25
2023-03-26T16:01:49.440Z,9.73
2023-03-26T16:04:34.397Z,16.93
2023-03-26T16:07:11.530Z,5.13
2023-03-26T16:10:16.840Z,5.30
2023-03-26T16:13:14.588Z,10.95
2023-03-26T16:15:42.608Z,6.40
2023-03-26T16:18:15.301Z,8.10
2023-03-26T16:20:54.006Z,9.40
2023-03-26T16:23:55.342Z,8.88
2023-03-26T16:26:54.779Z,9.80
2023-03-26T16:29:23.861Z,4.95
2023-03-26T16:32:14.844Z,4.60
2023-03-26T16:34:47.543Z,4.88
2023-03-26T16:37:36.024Z,5.60
2023-03-26T16:40:20.902Z,4.45
2023-03-26T16:42:47.973Z,13.15
2023-03-26T16:45:27.622Z,4.23
2023-03-26T16:48:06.789Z,6.13
2023-03-26T16:50:52.695Z,6.28
2023-03-26T16:53:29.852Z,8.20
2023-03-26T16:56:16.763Z,7.05
2023-03-26T16:59:00.306Z,5.00
2023-03-26T17:01:48.107Z,8.90
2023-03-26T17:04:23.305Z,3.88
2023-03-26T17:06:49.631Z,4.63
2023-03-26T17:09:31.581Z,2.97
2023-03-26T17:12:05.954Z,4.67
2023-03-26T17:14:38.156Z,9.50
2023-03-26T17:17:26.588Z,4.53
2023-03-26T17:20:13.279Z,5.90
2023-03-26T17:22:47.097Z,5.78
2023-03-26T17:25:33.449Z,3.37
2023-03-26T17:28:24.586Z,6.28
2023-03-26T17:31:23.939Z,4.18
2023-03-26T17:33:50.672Z,9.60
2023-03-26T17:36:24.005Z,3.53
2023-03-26T17:38:50.397Z,2.23
2023-03-26T17:41:54.397Z,11.45
2023-03-26T17:44:44.809Z,7.47
2023-03-26T17:47:26.949Z,7.07
2023-03-26T17:50:19.549Z,1.67
2023-03-26T17:53:00.181Z,11.23
2023-03-26T17:55:36.751Z,4.85
2023-03-26T17:58:20.350Z,5.45
2023-03-26T18:00:52.074Z,5.80
2023-03-26T18:03:30.837Z,6.70
2023-03-26T18:06:08.195Z,11.80
2023-03-26T18:08:42.475Z,8.13
2023-03-26T18:11:36.921Z,2.97
2023-03-26T18:14:45.752Z,6.93
2023-03-26T18:17:12.290Z,8.00
2023-03-26T18:19:55.210Z,10.17
2023-03-26T18:22:28.466Z,5.88
2023-03-26T18:25:01.275Z,9.75
2023-03-26T18:27:36.482Z,4.60
2023-03-26T18:30:14.879Z,7.43
2023-03-26T18:32:52.243Z,6.73
2023-03-26T18:35:21.849Z,6.72
2023-03-26T18:37:51.378Z,8.50
2023-03-26T18:40:21.292Z,4.28
2023-03-26T18:42:57.546Z,4.00
2023-03-26T18:45:36.028Z,6.03
2023-03-26T18:48:06.475Z,7.18
2023-03-26T18:50:36.818Z,3.55
2023-03-26T18:53:06.267Z,8.15
2023-03-26T18:55:39.152Z,4.30
2023-03-26T18:58:23.755Z,6.00
2023-03-26T19:00:52.865Z,3.90
2023-03-26T19:03:22.160Z,3.92
2023-03-26T19:05:49.201Z,9.15
2023-03-26T19:08:17.014Z,4.53
2023-03-26T19:10:45.145Z,3.77
2023-03-26T19:13:15.338Z,4.30
2023-03-26T19:15:46.419Z,5.72
2023-03-26T19:18:18.952Z,10.35
2023-03-26T19:20:48.233Z,5.15
2023-03-26T19:23:21.614Z,4.13
2023-03-26T19:25:54.847Z,9.43
2023-03-26T19:28:33.643Z,9.00
2023-03-26T19:31:36.948Z,4.00
2023-03-26T19:34:09.402Z,9.85
2023-03-26T19:36:57.913Z,2.97
2023-03-26T19:39:37.121Z,4.95
2023-03-26T19:42:06.401Z,5.43
2023-03-26T19:44:33.555Z,6.63
2023-03-26T19:47:07.537Z,5.28
2023-03-26T19:49:48.692Z,5.93
2023-03-26T19:52:21.220Z,5.28
2023-03-26T19:55:06.698Z,7.30
2023-03-26T19:57:36.269Z,8.13
2023-03-26T20:00:05.250Z,4.03
2023-03-26T20:02:31.751Z,3.90
2023-03-26T20:04:58.193Z,5.95
2023-03-26T20:10:15.757Z,1.92
2023-03-26T20:12:42.412Z,3.85
2023-03-26T20:15:19.247Z,4.03
2023-03-26T20:17:47.000Z,5.28
2023-03-26T20:20:13.646Z,10.40
2023-03-26T20:22:40.148Z,4.30
2023-03-26T20:25:21.508Z,5.82
2023-03-26T20:27:48.089Z,5.53
2023-03-26T20:32:44.476Z,6.65
2023-03-26T20:35:17.897Z,8.65
2023-03-26T20:37:44.692Z,3.90
2023-03-26T20:40:12.347Z,5.60
2023-03-26T20:42:39.166Z,6.95
2023-03-26T20:45:18.490Z,5.95
2023-03-26T20:47:45.906Z,5.18
2023-03-26T20:50:14.106Z,12.40
2023-03-26T20:52:41.466Z,6.17
2023-03-26T20:55:15.607Z,4.43
2023-03-26T20:57:46.384Z,2.20
2023-03-26T21:00:22.901Z,3.35
2023-03-26T21:02:53.798Z,2.33
2023-03-26T21:05:25.765Z,7.50
2023-03-26T21:07:57.751Z,5.35
2023-03-26T21:10:26.006Z,6.00
2023-03-26T21:13:00.225Z,4.93
2023-03-26T21:15:31.288Z,8.27
2023-03-26T21:17:58.080Z,6.83
2023-03-26T21:20:27.862Z,3.90
2023-03-26T21:23:27.089Z,6.97
2023-03-26T21:26:12.170Z,3.40
2023-03-26T21:28:47.626Z,8.20
2023-03-26T21:31:21.072Z,3.47
2023-03-26T21:33:49.298Z,5.43
2023-03-26T21:36:18.232Z,3.03
2023-03-26T21:38:45.544Z,2.70
2023-03-26T21:41:24.296Z,4.40
2023-03-26T21:43:51.363Z,4.83
2023-03-26T21:46:18.330Z,2.90
2023-03-26T21:48:44.949Z,4.85
2023-03-26T21:51:14.641Z,5.72
2023-03-26T21:53:42.442Z,4.63
2023-03-26T21:56:19.300Z,2.60
2023-03-26T21:59:07.585Z,4.93
2023-03-26T22:01:41.361Z,4.07
2023-03-26T22:04:26.793Z,3.75
2023-03-26T22:07:14.238Z,8.63
2023-03-26T22:09:41.268Z,6.57
2023-03-26T22:12:07.745Z,5.93
2023-03-26T22:14:34.408Z,3.22
2023-03-26T22:17:00.811Z,6.43
2023-03-26T22:19:29.104Z,4.65
2023-03-26T22:21:58.189Z,8.30
2023-03-26T22:24:24.664Z,4.70
2023-03-26T22:26:51.036Z,7.47
2023-03-26T22:29:17.487Z,5.43
2023-03-26T22:31:43.963Z,3.45
2023-03-26T22:34:11.683Z,5.87
2023-03-26T22:36:40.297Z,2.03
2023-03-26T22:39:07.152Z,5.68
2023-03-26T22:41:33.555Z,2.80
2023-03-26T22:44:09.313Z,3.25
2023-03-26T22:46:40.145Z,2.40
2023-03-26T22:49:06.602Z,5.93
2023-03-26T22:51:32.917Z,2.22
2023-03-26T22:53:59.275Z,4.10
2023-03-26T22:56:25.676Z,4.13
2023-03-26T22:58:52.042Z,8.90
2023-03-26T23:01:22.738Z,5.75
2023-03-26T23:03:49.574Z,8.55
2023-03-26T23:06:17.140Z,4.03
2023-03-26T23:08:43.741Z,3.90
2023-03-26T23:11:16.142Z,4.97
2023-03-26T23:13:43.904Z,4.05
2023-03-26T23:16:11.818Z,4.75
2023-03-26T23:18:39.150Z,7.78
2023-03-26T23:21:11.737Z,3.35
2023-03-26T23:23:39.538Z,2.67
2023-03-26T23:26:06.843Z,2.88
2023-03-26T23:28:34.369Z,3.78
2023-03-26T23:31:03.295Z,7.22
2023-03-26T23:33:34.135Z,4.50
2023-03-26T23:36:04.204Z,5.30
2023-03-26T23:38:44.061Z,4.70
2023-03-26T23:41:14.958Z,3.17
2023-03-26T23:43:54.807Z,3.58
2023-03-26T23:46:30.625Z,3.70
2023-03-26T23:48:59.847Z,2.17
2023-03-26T23:51:26.608Z,4.18
2023-03-26T23:53:53.635Z,3.40
2023-03-26T23:56:20.105Z,1.77
2023-03-26T23:58:47.636Z,7.03
